Time;durP1;ratioP1;P1;durP2;ratioP2;P2;SDS_P1;SDS_P2;PMS_P1;PMS_P2;Temp;Humidity;BMP_temperature;BMP_pressure;BME280_temperature;BME280_humidity;BME280_pressure;Samples;Min_cycle;Max_cycle;Signal;HPM_P1;HPM_P2
2023/04/19 00:00:16;;;;;;;1.75;1.65;;;;;;;12.28;73.02;94646.00;5008106;28;20230;-61
2023/04/19 00:02:42;;;;;;;2.38;2.10;;;;;;;12.31;73.40;94648.41;5007553;28;20354;-62
2023/04/19 00:05:12;;;;;;;1.90;1.80;;;;;;;12.38;72.79;94642.09;5008102;28;20247;-62
2023/04/19 00:07:39;;;;;;;2.15;1.98;;;;;;;12.22;73.35;94642.00;5005766;28;20728;-63
2023/04/19 00:10:07;;;;;;;1.98;1.85;;;;;;;12.25;73.02;94641.03;5007079;28;20721;-61
2023/04/19 00:12:34;;;;;;;2.20;2.00;;;;;;;12.12;73.32;94640.78;5007811;28;20769;-62
2023/04/19 00:15:00;;;;;;;3.05;2.15;;;;;;;12.14;73.97;94644.06;5008050;28;21292;-62
2023/04/19 00:17:27;;;;;;;2.08;1.85;;;;;;;12.09;74.16;94638.38;5007642;28;20894;-62
2023/04/19 00:19:54;;;;;;;1.58;1.48;;;;;;;11.98;74.62;94637.22;5005854;28;20925;-64
2023/04/19 00:22:22;;;;;;;2.03;1.92;;;;;;;12.04;74.48;94637.75;5006509;28;20294;-63
2023/04/19 00:24:49;;;;;;;1.25;1.23;;;;;;;12.05;74.52;94639.41;5007486;28;20223;-63
2023/04/19 00:27:16;;;;;;;1.70;1.60;;;;;;;12.03;74.36;94638.66;5007589;28;20296;-62
2023/04/19 00:29:43;;;;;;;2.15;1.92;;;;;;;12.06;74.13;94635.97;5006705;28;20271;-64
2023/04/19 00:32:10;;;;;;;1.58;1.48;;;;;;;12.08;74.34;94634.19;5005067;28;20642;-61
2023/04/19 00:34:36;;;;;;;1.38;1.27;;;;;;;12.13;74.05;94636.50;5006524;28;20204;-62
2023/04/19 00:37:04;;;;;;;1.92;1.83;;;;;;;12.07;73.83;94629.16;5006473;28;20298;-62
2023/04/19 00:39:32;;;;;;;1.55;1.45;;;;;;;12.09;73.84;94630.75;5005953;28;20743;-62
2023/04/19 00:42:00;;;;;;;2.10;1.50;;;;;;;12.05;73.98;94629.22;5006549;28;20668;-59
2023/04/19 00:44:26;;;;;;;2.60;1.92;;;;;;;12.10;73.95;94631.56;5005771;28;21203;-60
2023/04/19 00:46:54;;;;;;;2.75;1.73;;;;;;;12.12;74.02;94622.97;5006863;28;20290;-62
2023/04/19 00:49:22;;;;;;;3.15;1.40;;;;;;;12.09;73.99;94625.66;5006685;28;20298;-60
2023/04/19 00:51:50;;;;;;;1.60;1.50;;;;;;;12.13;74.33;94618.66;5007433;28;20294;-59
2023/04/19 00:54:16;;;;;;;2.25;1.90;;;;;;;12.12;74.57;94625.50;5007781;28;20358;-61
2023/04/19 00:56:45;;;;;;;1.80;1.70;;;;;;;12.11;74.74;94623.84;5007503;28;20215;-62
2023/04/19 00:59:14;;;;;;;1.95;1.65;;;;;;;12.11;74.26;94618.75;5004128;28;20305;-59
2023/04/19 01:01:41;;;;;;;1.80;1.70;;;;;;;12.11;74.65;94623.84;5006530;28;20748;-60
2023/04/19 01:04:08;;;;;;;1.60;1.50;;;;;;;12.08;74.93;94616.34;5006389;28;21367;-60
2023/04/19 01:06:36;;;;;;;1.80;1.70;;;;;;;12.04;74.97;94619.94;5006204;28;20338;-59
2023/04/19 01:09:03;;;;;;;1.92;1.65;;;;;;;12.04;75.00;94625.03;5005400;28;20293;-61
2023/04/19 01:11:30;;;;;;;2.10;2.00;;;;;;;12.14;75.16;94616.03;5006166;28;20235;-60
2023/04/19 01:13:58;;;;;;;2.45;2.10;;;;;;;12.20;74.94;94605.56;5006236;28;20303;-61
2023/04/19 01:16:26;;;;;;;2.13;2.03;;;;;;;12.27;74.42;94609.50;5006657;28;20350;-60
2023/04/19 01:18:53;;;;;;;2.08;1.98;;;;;;;12.32;74.92;94611.84;5006874;28;20211;-60
2023/04/19 01:21:21;;;;;;;2.05;1.95;;;;;;;12.21;74.62;94604.69;5006422;28;20314;-61
2023/04/19 01:23:49;;;;;;;1.60;1.50;;;;;;;12.13;75.54;94608.47;5006938;28;20263;-61
2023/04/19 01:26:16;;;;;;;2.15;1.75;;;;;;;12.17;75.05;94605.72;5004501;28;20357;-60
2023/04/19 01:28:42;;;;;;;1.90;1.80;;;;;;;12.07;75.02;94590.97;5006725;28;20246;-63
2023/04/19 01:31:09;;;;;;;2.08;1.98;;;;;;;12.11;75.51;94608.56;5005951;28;20207;-62
2023/04/19 01:33:36;;;;;;;1.50;1.40;;;;;;;12.09;75.50;94609.53;5005208;28;20200;-63
2023/04/19 01:36:03;;;;;;;1.88;1.77;;;;;;;12.00;76.02;94610.78;5006078;28;20296;-63
2023/04/19 01:38:30;;;;;;;1.80;1.70;;;;;;;12.11;75.00;94608.56;5005312;28;20236;-59
2023/04/19 01:40:58;;;;;;;1.75;1.70;;;;;;;12.06;75.29;94605.41;5006320;28;20255;-63
2023/04/19 01:43:24;;;;;;;1.75;1.65;;;;;;;12.05;75.42;94608.84;5008574;28;20239;-62
2023/04/19 01:45:51;;;;;;;2.15;2.03;;;;;;;12.00;75.88;94610.78;5010611;28;20231;-62
2023/04/19 01:48:18;;;;;;;1.92;1.83;;;;;;;12.16;75.42;94603.25;5010013;28;20207;-60
2023/04/19 01:50:44;;;;;;;1.88;1.77;;;;;;;12.14;75.43;94608.41;5010463;28;20250;-62
2023/04/19 01:53:11;;;;;;;2.67;2.17;;;;;;;12.09;75.37;94605.28;5007436;28;20298;-62
2023/04/19 01:55:38;;;;;;;2.20;2.10;;;;;;;12.08;75.76;94598.53;5010824;28;20290;-59
2023/04/19 01:58:07;;;;;;;1.88;1.77;;;;;;;11.99;75.92;94601.50;5006640;28;20219;-62
2023/04/19 02:00:33;;;;;;;2.40;2.20;;;;;;;11.99;75.86;94598.94;5011494;28;20227;-61
2023/04/19 02:03:00;;;;;;;2.25;2.15;;;;;;;12.01;75.98;94611.59;5009988;28;20305;-62
2023/04/19 02:05:27;;;;;;;2.10;2.00;;;;;;;11.95;76.09;94605.06;5009561;28;20322;-60
2023/04/19 02:07:53;;;;;;;2.33;2.22;;;;;;;11.87;76.39;94604.63;5007545;28;20318;-62
2023/04/19 02:10:20;;;;;;;2.20;2.10;;;;;;;11.81;76.00;94602.34;5008848;28;20269;-62
2023/04/19 02:12:47;;;;;;;3.22;2.45;;;;;;;11.75;76.50;94600.03;5007919;28;20346;-62
2023/04/19 02:15:15;;;;;;;2.55;2.35;;;;;;;11.60;76.84;94591.38;5008710;28;20583;-62
2023/04/19 02:17:42;;;;;;;2.47;2.38;;;;;;;11.79;76.79;94602.41;5010043;28;20433;-62
2023/04/19 02:20:09;;;;;;;2.38;2.17;;;;;;;11.83;76.24;94605.66;5008351;28;20365;-62
2023/04/19 02:22:36;;;;;;;2.25;2.15;;;;;;;11.81;75.89;94604.88;5006893;28;20685;-61
2023/04/19 02:25:03;;;;;;;2.90;2.65;;;;;;;11.81;75.97;94604.88;5009279;28;20295;-61
2023/04/19 02:27:30;;;;;;;2.47;2.28;;;;;;;11.83;76.29;94598.00;5008982;28;20261;-61
2023/04/19 02:29:56;;;;;;;2.40;2.30;;;;;;;11.76;76.74;94592.38;5006575;28;20211;-62
2023/04/19 02:32:25;;;;;;;2.83;2.72;;;;;;;11.81;76.02;94587.06;5008902;28;20307;-61
2023/04/19 02:34:51;;;;;;;2.50;2.30;;;;;;;11.73;76.45;94596.72;5009234;28;20258;-61
2023/04/19 02:37:18;;;;;;;2.80;2.60;;;;;;;11.76;76.41;94594.06;5010464;28;20207;-62
2023/04/19 02:39:45;;;;;;;2.60;2.40;;;;;;;11.78;76.31;94587.19;5010269;28;20293;-60
2023/04/19 02:42:12;;;;;;;3.03;2.83;;;;;;;11.82;76.23;94597.19;5010132;28;20725;-63
2023/04/19 02:44:38;;;;;;;3.33;3.03;;;;;;;11.78;76.41;94590.56;5008786;28;20621;-62
2023/04/19 02:47:05;;;;;;;2.85;2.75;;;;;;;11.72;76.44;94595.09;5010271;28;20308;-62
2023/04/19 02:49:35;;;;;;;2.70;2.60;;;;;;;11.77;76.57;94588.94;5009912;28;20235;-62
2023/04/19 02:52:02;;;;;;;3.38;3.17;;;;;;;11.73;76.15;94587.38;5010688;28;20207;-61
2023/04/19 02:54:29;;;;;;;2.65;2.55;;;;;;;11.94;75.85;94585.59;5007438;28;20302;-63
2023/04/19 02:56:56;;;;;;;2.97;2.83;;;;;;;11.85;75.83;94591.13;5010002;28;20291;-61
2023/04/19 02:59:23;;;;;;;2.92;2.72;;;;;;;11.83;75.81;94587.81;5007616;28;20218;-58
2023/04/19 03:01:49;;;;;;;3.28;3.08;;;;;;;11.80;75.63;94587.97;5006991;28;20318;-61
2023/04/19 03:04:16;;;;;;;4.00;3.20;;;;;;;11.74;75.99;94588.19;5009889;28;20891;-60
2023/04/19 03:06:44;;;;;;;3.05;2.85;;;;;;;11.76;76.05;94588.97;5009785;28;20231;-61
2023/04/19 03:09:11;;;;;;;3.67;3.30;;;;;;;11.77;75.68;94596.56;5010732;28;21089;-59
2023/04/19 03:11:39;;;;;;;7.50;3.13;;;;;;;11.68;76.46;94585.94;5010672;28;20295;-63
2023/04/19 03:14:05;;;;;;;3.38;3.10;;;;;;;11.71;76.07;94589.16;5008179;28;20318;-62
2023/04/19 03:16:32;;;;;;;3.47;3.22;;;;;;;11.73;76.19;94599.28;5008656;28;20666;-62
2023/04/19 03:18:59;;;;;;;3.20;3.00;;;;;;;11.73;76.50;94596.72;5009248;28;20212;-62
2023/04/19 03:21:27;;;;;;;2.60;2.50;;;;;;;11.71;76.46;94594.25;5010066;28;20421;-61
2023/04/19 03:23:56;;;;;;;3.28;3.08;;;;;;;11.67;76.69;94586.81;5009286;28;20219;-63
2023/04/19 03:26:22;;;;;;;2.70;2.53;;;;;;;11.60;76.70;94591.38;5007578;28;20227;-59
2023/04/19 03:28:49;;;;;;;3.08;2.88;;;;;;;11.57;76.53;94584.72;5009348;28;20334;-61
2023/04/19 03:31:16;;;;;;;3.15;2.95;;;;;;;11.57;76.41;94581.34;5007417;28;20575;-62
2023/04/19 03:33:43;;;;;;;3.40;3.20;;;;;;;11.57;76.97;94587.25;5007977;28;21242;-61
2023/04/19 03:36:09;;;;;;;3.40;3.20;;;;;;;11.51;77.08;94587.53;5007772;28;20346;-64
2023/04/19 03:38:36;;;;;;;3.20;3.00;;;;;;;11.65;76.57;94591.16;5008474;28;20352;-61
2023/04/19 03:41:05;;;;;;;3.13;2.92;;;;;;;11.50;77.05;94598.59;5009312;28;20227;-61
2023/04/19 03:43:31;;;;;;;6.38;5.78;;;;;;;11.46;77.53;94597.06;5007811;28;20231;-62
2023/04/19 03:45:58;;;;;;;5.47;4.95;;;;;;;11.55;76.92;94593.31;5007891;28;20337;-63
2023/04/19 03:48:25;;;;;;;3.63;3.42;;;;;;;11.58;76.91;94594.00;5009125;28;20212;-62
2023/04/19 03:50:51;;;;;;;6.55;3.22;;;;;;;11.55;77.13;94586.50;5008407;28;20243;-64
2023/04/19 03:53:18;;;;;;;3.65;3.45;;;;;;;11.51;76.77;94589.25;5009148;28;20303;-62
2023/04/19 03:55:45;;;;;;;3.65;3.35;;;;;;;11.50;77.18;94585.88;5007782;28;20230;-63
2023/04/19 03:58:13;;;;;;;18.70;4.43;;;;;;;11.47;77.14;94585.19;5009224;28;20207;-64
2023/04/19 04:00:40;;;;;;;8.68;7.60;;;;;;;11.53;77.01;94584.91;5008403;28;20282;-62
2023/04/19 04:03:07;;;;;;;5.50;4.72;;;;;;;11.51;76.98;94591.78;5009092;28;20231;-63
2023/04/19 04:05:34;;;;;;;3.80;3.60;;;;;;;11.52;76.87;94584.09;5007047;28;20227;-63
2023/04/19 04:08:01;;;;;;;4.05;3.65;;;;;;;11.63;76.73;94585.34;5008459;28;20840;-64
2023/04/19 04:10:28;;;;;;;3.30;3.10;;;;;;;11.58;76.50;94594.00;5008623;28;20239;-61
2023/04/19 04:12:54;;;;;;;3.83;3.53;;;;;;;11.49;76.94;94593.56;5008843;28;20239;-63
2023/04/19 04:15:22;;;;;;;4.15;3.20;;;;;;;11.48;76.84;94586.81;5008296;28;20322;-62
2023/04/19 04:17:50;;;;;;;2.95;2.85;;;;;;;11.51;76.92;94587.53;5008168;28;20235;-62
2023/04/19 04:20:16;;;;;;;5.85;4.93;;;;;;;11.48;76.77;94595.28;5008424;28;20299;-63
2023/04/19 04:22:44;;;;;;;7.05;6.43;;;;;;;11.40;77.11;94578.69;5009226;28;20298;-65
2023/04/19 04:25:11;;;;;;;4.57;4.25;;;;;;;11.57;76.73;94591.53;5008247;28;20207;-64
2023/04/19 04:27:38;;;;;;;4.60;4.10;;;;;;;11.62;76.76;94601.50;5007763;28;20326;-62
2023/04/19 04:30:06;;;;;;;4.53;4.22;;;;;;;11.52;77.19;94601.91;5008096;28;20200;-61
2023/04/19 04:32:35;;;;;;;3.97;3.78;;;;;;;11.57;76.90;94606.78;5008413;28;20236;-61
2023/04/19 04:35:01;;;;;;;5.70;3.80;;;;;;;11.49;77.11;94607.13;5006342;28;20219;-61
2023/04/19 04:37:28;;;;;;;4.45;3.80;;;;;;;11.53;77.02;94601.00;5006728;28;20693;-63
2023/04/19 04:39:55;;;;;;;4.07;3.85;;;;;;;11.51;77.17;94601.97;5007642;28;20223;-62
2023/04/19 04:42:22;;;;;;;4.00;3.80;;;;;;;11.52;77.41;94596.81;5008590;28;20593;-64
2023/04/19 04:44:49;;;;;;;4.65;4.35;;;;;;;11.62;76.88;94609.13;5008368;28;20346;-65
2023/04/19 04:47:17;;;;;;;4.88;4.35;;;;;;;11.72;76.47;94610.34;5006202;28;20207;-64
2023/04/19 04:49:45;;;;;;;4.90;4.50;;;;;;;11.75;75.97;94612.75;5007340;28;20362;-61
2023/04/19 04:52:11;;;;;;;4.75;4.35;;;;;;;11.76;76.13;94606.78;5007862;28;20331;-62
2023/04/19 04:54:38;;;;;;;4.50;4.20;;;;;;;11.72;75.84;94603.53;5007346;28;20269;-66
2023/04/19 04:57:05;;;;;;;6.45;3.65;;;;;;;11.58;76.57;94609.25;5007090;28;20302;-60
2023/04/19 04:59:32;;;;;;;4.28;3.90;;;;;;;11.67;76.63;94607.19;5007733;28;20302;-64
2023/04/19 05:01:58;;;;;;;4.32;4.03;;;;;;;11.77;76.48;94604.19;5008088;28;20220;-65
2023/04/19 05:04:25;;;;;;;4.38;4.07;;;;;;;11.84;76.14;94612.38;5006939;28;21900;-62
2023/04/19 05:06:53;;;;;;;4.50;4.10;;;;;;;11.89;75.55;94612.97;5006486;28;20317;-64
2023/04/19 05:09:20;;;;;;;4.22;3.72;;;;;;;11.83;75.75;94609.03;5007521;28;20227;-63
2023/04/19 05:11:47;;;;;;;3.47;3.28;;;;;;;11.81;76.09;94615.06;5008179;28;20258;-65
2023/04/19 05:14:13;;;;;;;3.60;3.40;;;;;;;11.79;76.12;94611.75;5007925;28;20211;-62
2023/04/19 05:16:40;;;;;;;6.78;3.70;;;;;;;11.82;76.43;94609.09;5006644;28;20231;-64
2023/04/19 05:19:07;;;;;;;3.53;3.33;;;;;;;11.92;75.73;94610.28;5006974;28;20235;-64
2023/04/19 05:21:34;;;;;;;3.97;3.70;;;;;;;11.93;75.98;94617.03;5007484;28;20671;-64
2023/04/19 05:24:02;;;;;;;4.45;3.90;;;;;;;11.99;75.79;94614.22;5007390;28;20774;-62
2023/04/19 05:26:28;;;;;;;4.30;3.92;;;;;;;12.12;75.14;94617.88;5007455;28;20309;-62
2023/04/19 05:28:56;;;;;;;4.03;3.72;;;;;;;12.11;75.13;94616.22;5007793;28;20304;-61
2023/04/19 05:31:22;;;;;;;6.57;3.63;;;;;;;12.20;74.66;94615.75;5007479;28;20195;-65
2023/04/19 05:33:49;;;;;;;3.97;3.55;;;;;;;12.17;74.61;94615.91;5007637;28;20211;-65
2023/04/19 05:36:16;;;;;;;3.70;3.40;;;;;;;12.23;74.76;94620.72;5007160;28;20303;-64
2023/04/19 05:38:42;;;;;;;3.88;3.60;;;;;;;12.25;74.58;94618.94;5006080;28;20294;-66
2023/04/19 05:41:11;;;;;;;4.55;4.15;;;;;;;12.27;74.61;94618.84;5007839;28;20323;-61
2023/04/19 05:43:38;;;;;;;4.57;3.42;;;;;;;12.34;74.66;94625.31;5007653;28;20295;-61
2023/04/19 05:46:04;;;;;;;3.50;3.30;;;;;;;12.41;74.34;94623.28;5007139;28;20781;-64
2023/04/19 05:48:31;;;;;;;4.30;4.00;;;;;;;12.67;73.60;94620.31;5007645;28;20303;-62
2023/04/19 05:50:58;;;;;;;6.60;4.05;;;;;;;12.89;72.51;94620.91;5006336;28;20319;-59
2023/04/19 05:53:25;;;;;;;4.03;3.47;;;;;;;13.05;72.07;94609.97;5007294;28;20453;-64
2023/04/19 05:55:52;;;;;;;4.32;4.00;;;;;;;13.17;70.87;94614.47;5007400;28;20768;-61
2023/04/19 05:58:20;;;;;;;4.18;3.83;;;;;;;13.29;70.65;94616.41;5006832;28;20705;-61
2023/04/19 06:00:47;;;;;;;3.72;3.42;;;;;;;13.48;70.39;94612.00;5006677;28;20306;-64
2023/04/19 06:03:14;;;;;;;4.97;4.10;;;;;;;13.54;69.88;94611.69;5007400;28;20203;-64
2023/04/19 06:05:42;;;;;;;3.70;3.47;;;;;;;13.65;69.36;94617.94;5006914;28;20212;-64
2023/04/19 06:08:08;;;;;;;3.45;3.25;;;;;;;13.78;68.74;94618.94;5007065;28;20724;-61
2023/04/19 06:10:35;;;;;;;4.57;4.28;;;;;;;13.85;68.58;94620.28;5006860;28;20295;-64
2023/04/19 06:13:02;;;;;;;5.38;4.88;;;;;;;13.91;68.53;94619.94;5006937;28;22003;-64
2023/04/19 06:15:30;;;;;;;5.00;4.57;;;;;;;13.99;68.52;94620.34;5006923;28;20709;-62
2023/04/19 06:17:57;;;;;;;5.80;3.38;;;;;;;14.05;67.63;94621.75;5006340;28;20280;-60
2023/04/19 06:20:24;;;;;;;4.13;3.83;;;;;;;13.89;67.75;94619.19;5006576;28;20240;-64
2023/04/19 06:22:50;;;;;;;4.50;4.20;;;;;;;13.93;68.08;94623.22;5007967;28;20344;-63
2023/04/19 06:25:17;;;;;;;3.83;3.53;;;;;;;14.05;68.04;94622.59;5006544;28;20640;-65
2023/04/19 06:27:44;;;;;;;3.80;3.60;;;;;;;14.09;67.34;94616.41;5007401;28;20239;-61
2023/04/19 06:30:11;;;;;;;3.65;3.45;;;;;;;14.24;67.09;94627.53;5010427;28;20307;-63
2023/04/19 06:32:39;;;;;;;3.40;3.20;;;;;;;14.53;66.37;94621.66;5011201;28;20208;-62
2023/04/19 06:35:07;;;;;;;4.47;3.50;;;;;;;14.78;65.62;94628.78;5011207;28;20312;-64
2023/04/19 06:37:34;;;;;;;4.78;4.38;;;;;;;14.78;64.66;94623.66;5009617;28;21053;-64
2023/04/19 06:40:01;;;;;;;5.70;3.90;;;;;;;14.75;64.93;94628.94;5009197;28;20282;-61
2023/04/19 06:42:27;;;;;;;4.38;3.97;;;;;;;14.87;64.23;94627.41;5010084;28;20227;-66
2023/04/19 06:44:55;;;;;;;5.35;3.53;;;;;;;14.92;64.49;94630.53;5010744;28;20305;-64
2023/04/19 06:47:22;;;;;;;3.90;3.60;;;;;;;14.85;64.27;94629.22;5010407;28;20257;-63
2023/04/19 06:49:50;;;;;;;3.38;3.08;;;;;;;14.81;64.60;94635.44;5009267;28;20693;-65
2023/04/19 06:52:17;;;;;;;3.83;3.53;;;;;;;14.82;64.41;94634.53;5010003;28;20204;-68
2023/04/19 06:54:47;;;;;;;4.50;4.20;;;;;;;14.57;64.38;94615.47;5010196;28;20294;-64
2023/04/19 06:57:14;;;;;;;4.53;4.13;;;;;;;14.59;64.55;94635.84;5010326;28;20346;-64
2023/04/19 06:59:40;;;;;;;6.53;4.20;;;;;;;14.59;65.15;94633.28;5010437;28;20294;-64
2023/04/19 07:02:07;;;;;;;7.10;4.57;;;;;;;14.60;65.40;94640.84;5009954;28;20255;-61
2023/04/19 07:04:35;;;;;;;4.32;3.75;;;;;;;14.62;65.09;94639.03;5009916;28;20294;-63
2023/04/19 07:07:03;;;;;;;4.07;3.78;;;;;;;14.56;65.63;94639.38;5008594;28;20814;-67
2023/04/19 07:09:30;;;;;;;4.68;4.28;;;;;;;14.48;65.51;94638.16;5010117;28;20709;-65
2023/04/19 07:11:56;;;;;;;4.32;4.00;;;;;;;14.44;66.01;94644.34;5008687;28;20874;-61
2023/04/19 07:14:23;;;;;;;7.45;3.95;;;;;;;14.36;66.31;94634.50;5009512;28;20672;-64
2023/04/19 07:16:52;;;;;;;3.63;3.42;;;;;;;14.53;65.98;94636.19;5009387;28;20904;-63
2023/04/19 07:19:19;;;;;;;3.70;3.47;;;;;;;14.53;65.13;94633.63;5009991;28;20696;-64
2023/04/19 07:21:46;;;;;;;3.85;3.55;;;;;;;14.73;64.94;94641.00;5007898;28;20236;-62
2023/04/19 07:24:15;;;;;;;3.67;3.45;;;;;;;14.70;64.55;94643.72;5009683;28;20299;-64
2023/04/19 07:26:41;;;;;;;3.25;2.95;;;;;;;14.71;64.71;94642.81;5009422;28;20257;-62
2023/04/19 07:29:08;;;;;;;3.63;3.30;;;;;;;14.72;64.94;94644.47;5009946;28;20212;-63
2023/04/19 07:31:35;;;;;;;4.63;4.20;;;;;;;14.67;65.19;94646.44;5009084;28;20652;-63
2023/04/19 07:34:02;;;;;;;6.43;3.60;;;;;;;14.78;64.16;94644.13;5008444;28;20697;-64
2023/04/19 07:36:30;;;;;;;6.45;4.13;;;;;;;14.71;64.19;94650.47;5008089;28;20227;-63
2023/04/19 07:38:57;;;;;;;3.58;3.28;;;;;;;14.47;64.49;94644.19;5010503;28;20265;-64
2023/04/19 07:41:25;;;;;;;3.15;2.95;;;;;;;14.41;65.22;94639.41;5008813;28;20211;-62
2023/04/19 07:43:52;;;;;;;3.67;3.47;;;;;;;14.49;65.09;94642.38;5009791;28;20353;-61
2023/04/19 07:46:18;;;;;;;3.40;3.15;;;;;;;14.38;65.60;94644.63;5008202;28;20239;-64
2023/04/19 07:48:45;;;;;;;3.53;3.22;;;;;;;14.52;65.40;94647.31;5009464;28;20324;-62
2023/04/19 07:51:13;;;;;;;3.28;3.08;;;;;;;14.63;64.89;94644.97;5008314;28;20271;-65
2023/04/19 07:53:42;;;;;;;4.90;3.60;;;;;;;14.64;64.73;94641.50;5009425;28;20346;-60
2023/04/19 07:56:09;;;;;;;3.80;3.50;;;;;;;14.72;64.19;94644.47;5009414;28;20204;-65
2023/04/19 07:58:40;;;;;;;3.80;3.50;;;;;;;14.91;64.47;94637.38;5010005;28;20257;-64
2023/04/19 08:01:06;;;;;;;4.70;3.72;;;;;;;15.15;63.70;94637.72;5008386;28;20305;-65
2023/04/19 08:03:34;;;;;;;5.20;2.97;;;;;;;15.29;62.81;94644.59;5008051;28;20233;-61
2023/04/19 08:06:01;;;;;;;3.20;2.90;;;;;;;15.41;61.93;94648.97;5006937;28;20262;-63
2023/04/19 08:08:28;;;;;;;3.33;3.13;;;;;;;15.42;62.40;94642.94;5008430;28;20208;-65
2023/04/19 08:10:54;;;;;;;3.70;2.85;;;;;;;15.55;61.76;94650.75;5008311;28;22043;-63
2023/04/19 08:13:21;;;;;;;3.30;3.10;;;;;;;15.68;60.84;94638.03;5008717;28;20219;-63
2023/04/19 08:15:49;;;;;;;2.97;2.55;;;;;;;15.73;60.80;94638.59;5008979;28;20326;-62
2023/04/19 08:18:16;;;;;;;3.13;2.92;;;;;;;15.74;60.71;94650.50;5008599;28;20637;-65
2023/04/19 08:20:43;;;;;;;3.75;3.45;;;;;;;15.76;60.52;94644.38;5007593;28;20224;-62
2023/04/19 08:23:11;;;;;;;3.33;3.13;;;;;;;15.70;60.91;94643.91;5007890;28;20250;-64
2023/04/19 08:25:38;;;;;;;4.13;2.67;;;;;;;15.68;60.84;94641.44;5008465;28;20213;-65
2023/04/19 08:28:05;;;;;;;2.70;2.60;;;;;;;15.77;60.19;94645.19;5008654;28;20231;-63
2023/04/19 08:30:32;;;;;;;3.35;3.15;;;;;;;15.81;59.47;94642.34;5008783;28;20208;-64
2023/04/19 08:33:00;;;;;;;2.50;2.40;;;;;;;15.89;59.86;94641.88;5008143;28;20723;-63
2023/04/19 08:35:27;;;;;;;2.03;1.92;;;;;;;16.04;59.17;94638.38;5007359;28;20700;-65
2023/04/19 08:37:54;;;;;;;3.85;2.53;;;;;;;16.27;58.55;94632.66;5006972;28;20295;-64
2023/04/19 08:40:20;;;;;;;3.92;2.55;;;;;;;16.51;57.83;94632.84;5008178;28;20231;-63
2023/04/19 08:42:47;;;;;;;3.03;2.63;;;;;;;16.74;57.55;94631.41;5008495;28;20365;-63
2023/04/19 08:45:16;;;;;;;2.25;2.15;;;;;;;17.08;56.59;94626.63;5008871;28;20290;-62
2023/04/19 08:47:44;;;;;;;2.63;2.53;;;;;;;17.46;55.12;94624.91;5008537;28;20274;-62
2023/04/19 08:50:12;;;;;;;2.50;2.30;;;;;;;17.81;53.92;94622.56;5008233;28;20259;-63
2023/04/19 08:52:39;;;;;;;2.40;2.22;;;;;;;18.09;53.54;94624.03;5008363;28;20227;-62
2023/04/19 08:55:08;;;;;;;2.60;2.40;;;;;;;18.29;52.51;94612.34;5007606;28;20315;-65
2023/04/19 08:57:36;;;;;;;2.67;2.47;;;;;;;18.21;53.10;94615.47;5006741;28;20261;-65
2023/04/19 09:00:06;;;;;;;3.88;2.47;;;;;;;18.30;52.83;94614.81;5007418;28;20196;-60
2023/04/19 09:02:45;;;;;;;2.70;2.50;;;;;;;18.19;52.69;94611.34;5007356;28;20220;-67
2023/04/19 09:05:13;;;;;;;3.47;2.88;;;;;;;18.12;52.78;94613.53;5007949;28;20592;-62
2023/04/19 09:07:41;;;;;;;2.25;2.00;;;;;;;18.11;52.65;94604.16;5007941;28;20338;-63
2023/04/19 09:10:09;;;;;;;2.05;1.95;;;;;;;18.59;51.83;94609.31;5007367;28;20218;-62
2023/04/19 09:12:37;;;;;;;1.90;1.80;;;;;;;19.51;49.27;94601.69;5007289;28;20231;-63
2023/04/19 09:15:07;;;;;;;2.13;2.03;;;;;;;20.36;46.99;94599.34;5007237;28;20684;-60
2023/04/19 09:17:34;;;;;;;2.65;1.95;;;;;;;21.29;44.47;94597.81;5007298;28;20207;-63
2023/04/19 09:20:02;;;;;;;1.95;1.85;;;;;;;21.93;42.80;94592.41;5007817;28;20289;-63
2023/04/19 09:22:30;;;;;;;2.72;2.60;;;;;;;22.20;41.82;94588.41;5007487;28;20328;-63
2023/04/19 09:24:58;;;;;;;3.50;2.28;;;;;;;22.23;42.12;94588.16;5007233;28;20721;-63
2023/04/19 09:27:30;;;;;;;2.95;2.75;;;;;;;22.60;41.44;94580.56;5007765;28;20293;-63
2023/04/19 09:29:58;;;;;;;1.90;1.80;;;;;;;22.61;41.08;94577.00;5007385;28;20401;-63
2023/04/19 09:32:25;;;;;;;2.72;2.28;;;;;;;22.58;40.85;94572.09;5007479;28;20207;-62
2023/04/19 09:34:56;;;;;;;2.70;2.50;;;;;;;22.86;41.18;94581.69;5007401;28;20211;-64
2023/04/19 09:37:24;;;;;;;2.10;2.00;;;;;;;23.14;39.56;94589.56;5006917;28;20687;-62
2023/04/19 09:39:52;;;;;;;2.42;2.28;;;;;;;23.29;38.56;94582.97;5007317;28;20200;-64
2023/04/19 09:42:19;;;;;;;2.40;2.20;;;;;;;23.36;39.24;94573.69;5007368;28;22130;-58
2023/04/19 09:44:56;;;;;;;2.30;2.20;;;;;;;23.55;38.76;94583.22;5007201;28;20585;-66
2023/04/19 09:47:24;;;;;;;12.73;2.30;;;;;;;23.68;38.81;94579.34;5006388;28;20211;-64
2023/04/19 09:50:09;;;;;;;2.47;2.00;;;;;;;23.53;38.45;94575.56;5006540;28;20374;-65
2023/04/19 09:52:37;;;;;;;2.05;1.95;;;;;;;23.70;38.78;94574.84;5005044;28;20234;-66
2023/04/19 09:55:07;;;;;;;2.65;2.10;;;;;;;23.65;38.31;94571.84;5007465;28;20326;-64
2023/04/19 09:57:34;;;;;;;1.75;1.63;;;;;;;23.28;38.77;94568.38;5006283;28;20207;-66
2023/04/19 10:00:05;;;;;;;2.00;1.90;;;;;;;22.58;39.40;94572.91;5006067;28;20235;-68
2023/04/19 10:02:32;;;;;;;2.42;2.33;;;;;;;21.89;40.44;94566.91;5005375;28;20289;-65
2023/04/19 10:04:59;;;;;;;4.10;2.28;;;;;;;21.33;42.44;94568.19;5007862;28;20393;-61
2023/04/19 10:07:27;;;;;;;2.75;2.55;;;;;;;21.28;43.47;94570.31;5005846;28;20231;-66
2023/04/19 10:09:56;;;;;;;2.67;2.55;;;;;;;21.36;43.65;94564.53;5008159;28;20235;-64
2023/04/19 10:12:26;;;;;;;4.90;2.67;;;;;;;21.15;43.67;94563.69;5011486;28;20213;-62
2023/04/19 10:14:55;;;;;;;8.60;2.92;;;;;;;20.70;43.93;94553.63;5010598;28;20303;-67
2023/04/19 10:17:22;;;;;;;12.18;10.93;;;;;;;20.42;45.36;94567.94;5010013;28;20203;-64
2023/04/19 10:19:55;;;;;;;7.38;6.68;;;;;;;20.09;45.57;94561.06;5008860;28;20290;-65
2023/04/19 10:22:22;;;;;;;5.50;4.03;;;;;;;19.82;46.22;94560.63;5010685;28;20207;-66
2023/04/19 10:25:13;;;;;;;7.00;6.40;;;;;;;19.64;47.06;94563.69;5011491;28;20285;-64
2023/04/19 10:27:44;;;;;;;6.50;5.65;;;;;;;19.71;47.17;94558.91;5010862;28;20230;-65
2023/04/19 10:30:18;;;;;;;3.38;3.17;;;;;;;19.66;46.56;94554.09;5010334;28;20266;-63
2023/04/19 10:32:46;;;;;;;4.05;3.85;;;;;;;19.76;46.86;94561.13;5010513;28;20231;-64
2023/04/19 10:35:21;;;;;;;4.55;4.25;;;;;;;19.82;45.98;94542.59;5009489;28;20445;-65
2023/04/19 10:38:09;;;;;;;4.07;3.80;;;;;;;19.88;46.10;94544.69;5009992;28;20234;-64
2023/04/19 10:40:55;;;;;;;3.22;3.03;;;;;;;19.87;46.46;94548.22;5010422;28;20215;-65
2023/04/19 10:43:23;;;;;;;3.05;2.88;;;;;;;19.74;45.50;94543.19;5009768;28;20764;-65
2023/04/19 10:45:50;;;;;;;3.38;3.17;;;;;;;19.60;46.07;94540.84;5011267;28;20226;-67
2023/04/19 10:48:38;;;;;;;3.15;2.60;;;;;;;19.49;46.44;94533.94;5009644;28;20894;-64
2023/04/19 10:51:10;;;;;;;2.70;2.55;;;;;;;19.47;46.25;94537.56;5009981;28;20231;-65
2023/04/19 10:53:44;;;;;;;3.33;3.03;;;;;;;19.34;46.29;94532.50;5010468;28;20290;-64
2023/04/19 10:56:11;;;;;;;2.72;2.53;;;;;;;19.27;46.48;94523.63;5009933;28;20294;-62
2023/04/19 10:59:12;;;;;;;2.92;2.72;;;;;;;19.26;46.96;94524.56;5010050;28;20239;-64
2023/04/19 11:01:41;;;;;;;2.72;2.53;;;;;;;19.25;46.54;94520.34;5010151;28;20228;-65
2023/04/19 11:04:09;;;;;;;2.80;2.60;;;;;;;19.09;46.67;94509.53;5009696;28;20724;-63
2023/04/19 11:06:37;;;;;;;2.65;2.45;;;;;;;19.15;46.83;94511.66;5010158;28;20309;-66
2023/04/19 11:09:06;;;;;;;2.95;2.75;;;;;;;19.24;46.49;94516.94;5009517;28;20208;-67
2023/04/19 11:11:34;;;;;;;3.63;2.95;;;;;;;19.20;47.23;94517.28;5009385;28;20294;-66
2023/04/19 11:14:03;;;;;;;3.03;2.83;;;;;;;19.21;46.92;94518.94;5008980;28;20223;-61
2023/04/19 11:16:29;;;;;;;4.03;2.30;;;;;;;19.12;46.51;94514.47;5009604;28;20231;-61
2023/04/19 11:18:57;;;;;;;2.85;2.65;;;;;;;19.06;47.00;94518.31;5010007;28;20235;-63
2023/04/19 11:21:24;;;;;;;2.80;2.42;;;;;;;19.06;46.85;94509.78;5009254;28;20236;-64
2023/04/19 11:24:06;;;;;;;4.07;2.97;;;;;;;19.17;47.19;94512.38;5009945;28;20266;-62
2023/04/19 11:26:33;;;;;;;2.83;2.63;;;;;;;19.25;46.38;94515.19;5009568;28;20208;-64
2023/04/19 11:29:00;;;;;;;2.90;2.70;;;;;;;19.24;46.32;94498.09;5010069;28;20346;-67
2023/04/19 11:31:27;;;;;;;3.03;2.90;;;;;;;19.28;46.76;94512.38;5008228;28;20315;-64
2023/04/19 11:33:54;;;;;;;2.88;2.78;;;;;;;19.41;45.56;94507.91;5009124;28;20303;-66
2023/04/19 11:36:22;;;;;;;2.67;2.47;;;;;;;19.51;45.37;94501.16;5008515;28;20298;-68